createdAt,value
2022-09-10T00:01:10.614Z,101314.00
2022-09-10T00:04:02.527Z,101313.72
2022-09-10T00:06:48.109Z,101316.88
2022-09-10T00:09:26.260Z,101316.34
2022-09-10T00:12:06.156Z,101315.06
2022-09-10T00:14:50.491Z,101253.03
2022-09-10T00:17:29.843Z,101320.97
2022-09-10T00:23:16.107Z,101315.47
2022-09-10T00:25:57.574Z,101313.41
2022-09-10T00:28:42.195Z,101322.75
2022-09-10T00:31:28.681Z,101321.41
2022-09-10T00:34:29.357Z,101312.47
2022-09-10T00:37:13.367Z,101320.13
2022-09-10T00:39:50.933Z,101309.88
2022-09-10T00:42:43.005Z,101306.06
2022-09-10T00:45:32.067Z,101301.44
2022-09-10T00:48:15.179Z,101298.38
2022-09-10T00:50:55.687Z,101246.94
2022-09-10T00:54:09.139Z,101297.03
2022-09-10T00:56:49.740Z,101298.75
2022-09-10T00:59:34.203Z,101297.88
2022-09-10T01:02:23.110Z,101293.84
2022-09-10T01:05:15.272Z,101292.50
2022-09-10T01:08:00.970Z,101293.97
2022-09-10T01:10:52.554Z,101293.22
2022-09-10T01:14:02.327Z,101291.22
2022-09-10T01:16:50.838Z,101291.97
2022-09-10T01:19:44.990Z,101271.53
2022-09-10T01:22:41.794Z,101280.94
2022-09-10T01:25:27.445Z,101282.53
2022-09-10T01:28:15.635Z,101275.34
2022-09-10T01:30:56.739Z,101274.81
2022-09-10T01:33:47.983Z,101266.03
2022-09-10T01:36:31.266Z,101271.88
2022-09-10T01:39:24.085Z,101282.91
2022-09-10T01:42:05.288Z,101278.72
2022-09-10T01:45:17.741Z,101285.34
2022-09-10T01:48:10.089Z,101272.56
2022-09-10T01:50:57.350Z,101267.06
2022-09-10T01:54:01.820Z,101266.66
2022-09-10T01:56:50.322Z,101257.28
2022-09-10T01:59:43.427Z,101254.97
2022-09-10T02:02:52.014Z,101249.81
2022-09-10T02:05:37.809Z,101246.19
2022-09-10T02:08:29.764Z,101244.03
2022-09-10T02:11:11.796Z,101249.19
2022-09-10T02:13:51.385Z,101237.13
2022-09-10T02:16:35.147Z,101217.69
2022-09-10T02:19:31.190Z,101229.44
2022-09-10T02:22:09.083Z,101221.78
2022-09-10T02:24:46.330Z,101225.31
2022-09-10T02:27:33.009Z,101189.28
2022-09-10T02:30:18.615Z,101142.19
2022-09-10T02:32:57.501Z,101210.34
2022-09-10T02:35:49.913Z,101215.19
2022-09-10T02:38:30.036Z,101218.47
2022-09-10T02:41:08.401Z,101200.31
2022-09-10T02:43:48.252Z,101212.69
2022-09-10T02:46:39.481Z,101197.38
2022-09-10T02:49:33.279Z,101208.59
2022-09-10T02:52:14.003Z,101207.66
2022-09-10T02:54:55.172Z,101199.66
2022-09-10T02:57:37.575Z,101190.75
2022-09-10T03:00:16.794Z,101195.13
2022-09-10T03:02:56.864Z,101185.06
2022-09-10T03:05:41.019Z,101188.19
2022-09-10T03:08:51.596Z,101187.84
2022-09-10T03:11:29.474Z,101176.84
2022-09-10T03:14:08.283Z,101185.03
2022-09-10T03:19:54.862Z,101175.63
2022-09-10T03:22:37.446Z,101181.56
2022-09-10T03:25:22.116Z,101182.34
2022-09-10T03:28:21.936Z,101173.84
2022-09-10T03:31:11.987Z,101173.50
2022-09-10T03:33:57.066Z,101169.13
2022-09-10T03:36:40.568Z,101176.16
2022-09-10T03:39:31.693Z,101165.16
2022-09-10T03:42:19.373Z,101167.91
2022-09-10T03:45:12.297Z,101167.75
2022-09-10T03:47:50.326Z,101158.78
2022-09-10T03:50:41.241Z,101162.06
2022-09-10T03:53:26.272Z,101155.34
2022-09-10T03:56:19.679Z,101160.94
2022-09-10T03:59:02.466Z,101156.41
2022-09-10T04:01:42.336Z,101158.34
2022-09-10T04:04:22.284Z,101152.78
2022-09-10T04:07:01.421Z,101158.09
2022-09-10T04:09:46.237Z,101154.06
2022-09-10T04:12:26.178Z,101154.84
2022-09-10T04:15:20.903Z,101158.22
2022-09-10T04:21:24.596Z,101158.09
2022-09-10T04:24:03.998Z,101152.78
2022-09-10T04:26:44.360Z,101150.09
2022-09-10T04:29:26.592Z,101144.16
2022-09-10T04:32:20.115Z,101153.44
2022-09-10T04:35:07.070Z,101153.09
2022-09-10T04:37:50.734Z,101146.38
2022-09-10T04:40:31.995Z,101151.56
2022-09-10T04:43:10.905Z,101148.53
2022-09-10T04:45:56.781Z,101151.69
2022-09-10T04:48:45.981Z,101150.25
2022-09-10T04:51:24.580Z,101145.47
2022-09-10T04:54:15.658Z,101146.38
2022-09-10T04:56:57.938Z,101143.88
2022-09-10T04:59:40.934Z,101139.34
2022-09-10T05:02:30.301Z,101152.50
2022-09-10T05:05:43.381Z,101147.16
2022-09-10T05:08:28.589Z,101143.53
2022-09-10T05:11:11.535Z,101137.16
2022-09-10T05:14:03.770Z,101140.59
2022-09-10T05:16:45.325Z,101141.88
2022-09-10T05:19:29.218Z,101149.06
2022-09-10T05:22:15.009Z,101143.97
2022-09-10T05:24:55.950Z,101139.00
2022-09-10T05:27:38.701Z,101146.38
2022-09-10T05:30:23.277Z,101152.72
2022-09-10T05:32:58.248Z,101149.44
2022-09-10T05:38:46.446Z,101157.81
2022-09-10T05:41:24.502Z,101142.13
2022-09-10T05:44:06.229Z,101148.47
2022-09-10T05:46:50.352Z,101143.59
2022-09-10T05:52:38.428Z,101133.09
2022-09-10T05:55:33.152Z,101133.25
2022-09-10T05:58:13.060Z,101140.63
2022-09-10T06:04:16.489Z,101136.22
2022-09-10T06:07:14.621Z,101126.88
2022-09-10T06:10:02.179Z,101136.81
2022-09-10T06:12:41.752Z,101121.88
2022-09-10T06:15:21.597Z,101126.47
2022-09-10T06:18:04.658Z,101125.63
2022-09-10T06:20:45.412Z,101134.63
2022-09-10T06:23:29.889Z,101131.25
2022-09-10T06:26:16.878Z,101122.59
2022-09-10T06:29:03.991Z,101130.09
2022-09-10T06:31:53.793Z,101128.34
2022-09-10T06:34:32.870Z,101124.91
2022-09-10T06:37:16.081Z,101120.03
2022-09-10T06:39:55.601Z,101116.72
2022-09-10T06:42:37.292Z,101121.41
2022-09-10T06:45:14.076Z,101118.31
2022-09-10T06:51:13.221Z,101125.19
2022-09-10T06:54:02.930Z,101096.00
2022-09-10T06:56:52.515Z,101126.09
2022-09-10T06:59:31.904Z,101123.59
2022-09-10T07:02:22.290Z,101127.53
2022-09-10T07:05:00.076Z,101129.44
2022-09-10T07:07:38.673Z,101126.00
2022-09-10T07:10:24.686Z,101122.78
2022-09-10T07:13:11.590Z,101121.31
2022-09-10T07:15:58.470Z,101074.28
2022-09-10T07:18:34.318Z,101120.19
2022-09-10T07:21:15.983Z,101122.13
2022-09-10T07:23:52.088Z,101081.78
2022-09-10T07:26:32.403Z,101118.69
2022-09-10T07:29:19.844Z,101124.84
2022-09-10T07:32:05.752Z,101129.56
2022-09-10T07:34:48.284Z,101121.84
2022-09-10T07:37:27.701Z,101098.09
2022-09-10T07:40:05.800Z,101124.88
2022-09-10T07:42:45.896Z,101123.56
2022-09-10T07:45:41.700Z,101129.25
2022-09-10T07:48:23.360Z,101120.47
2022-09-10T07:51:11.643Z,101134.31
2022-09-10T07:53:55.646Z,101133.69
2022-09-10T07:56:54.304Z,101128.59
2022-09-10T07:59:41.462Z,101124.34
2022-09-10T08:02:24.759Z,101129.84
2022-09-10T08:05:13.814Z,101129.22
2022-09-10T08:07:59.589Z,101129.44
2022-09-10T08:10:36.932Z,101126.22
2022-09-10T08:13:24.078Z,101126.63
2022-09-10T08:16:27.695Z,101130.28
2022-09-10T08:19:30.727Z,101127.16
2022-09-10T08:22:13.304Z,101125.78
2022-09-10T08:25:10.294Z,101132.34
2022-09-10T08:27:56.326Z,101123.09
2022-09-10T08:30:36.092Z,101134.94
2022-09-10T08:33:20.445Z,101139.75
2022-09-10T08:36:16.939Z,101143.50
2022-09-10T08:38:56.974Z,101154.53
2022-09-10T08:45:00.306Z,101103.19
2022-09-10T08:47:49.817Z,101153.13
2022-09-10T08:50:39.139Z,101147.78
2022-09-10T08:53:30.172Z,101157.06
2022-09-10T08:56:17.340Z,101135.31
2022-09-10T08:59:17.021Z,101155.81
2022-09-10T09:01:57.294Z,101101.13
2022-09-10T09:04:43.068Z,101166.97
2022-09-10T09:07:22.965Z,101171.66
2022-09-10T09:09:57.942Z,101172.09
2022-09-10T09:19:19.160Z,101175.78
2022-09-10T09:22:10.069Z,101182.75
2022-09-10T09:25:22.751Z,101189.47
2022-09-10T09:28:07.610Z,101138.53
2022-09-10T09:30:55.075Z,101181.22
2022-09-10T09:33:43.751Z,101174.38
2022-09-10T09:36:40.341Z,101181.53
2022-09-10T09:39:25.761Z,101185.22
2022-09-10T09:42:36.045Z,101190.59
2022-09-10T09:48:38.176Z,101201.34
2022-09-10T09:51:38.385Z,101200.53
2022-09-10T09:55:13.036Z,101205.16
2022-09-10T09:57:41.053Z,101210.59
2022-09-10T10:00:52.942Z,101216.88
2022-09-10T10:03:40.054Z,101214.38
2022-09-10T10:06:40.263Z,101212.78
2022-09-10T10:09:50.889Z,101214.63
2022-09-10T10:12:35.332Z,101211.22
2022-09-10T10:15:49.416Z,101216.59
2022-09-10T10:18:59.848Z,101218.41
2022-09-10T10:21:37.729Z,101191.72
2022-09-10T10:24:35.273Z,101222.13
2022-09-10T10:27:23.988Z,101225.75
2022-09-10T10:33:05.568Z,101227.59
2022-09-10T10:36:04.674Z,101232.81
2022-09-10T10:38:45.095Z,101163.34
2022-09-10T10:41:57.493Z,101238.91
2022-09-10T10:45:13.404Z,101236.19
2022-09-10T10:48:02.295Z,101210.03
2022-09-10T10:50:54.591Z,101240.50
2022-09-10T10:54:09.972Z,101227.47
2022-09-10T10:57:05.056Z,101226.56
2022-09-10T11:00:07.257Z,101230.97
2022-09-10T11:02:50.764Z,101237.06
2022-09-10T11:05:35.591Z,101230.09
2022-09-10T11:08:31.689Z,101224.88
2022-09-10T11:11:16.827Z,101229.31
2022-09-10T11:14:10.398Z,101234.59
2022-09-10T11:17:07.435Z,101226.75
2022-09-10T11:20:17.503Z,101225.72
2022-09-10T11:23:13.302Z,101237.91
2022-09-10T11:26:06.572Z,101246.63
2022-09-10T11:28:53.227Z,101170.25
2022-09-10T11:31:34.289Z,101245.88
2022-09-10T11:34:26.305Z,101243.28
2022-09-10T11:37:06.905Z,101245.13
2022-09-10T11:39:58.823Z,101255.75
2022-09-10T11:42:56.856Z,101254.03
2022-09-10T11:45:40.977Z,101250.63
2022-09-10T11:48:39.256Z,101234.16
2022-09-10T11:51:22.497Z,101233.34
2022-09-10T11:54:00.153Z,101249.88
2022-09-10T11:57:23.688Z,101250.81
2022-09-10T12:00:24.585Z,101178.72
2022-09-10T12:03:25.965Z,101243.88
2022-09-10T12:06:15.338Z,101236.91
2022-09-10T12:09:09.295Z,101240.41
2022-09-10T12:12:05.861Z,101233.44
2022-09-10T12:14:48.638Z,101243.97
2022-09-10T12:17:35.001Z,101244.00
2022-09-10T12:20:28.790Z,101237.91
2022-09-10T12:23:14.028Z,101248.44
2022-09-10T12:26:06.910Z,101239.72
2022-09-10T12:32:41.699Z,101249.59
2022-09-10T12:36:01.268Z,101244.38
2022-09-10T12:39:53.730Z,101252.19
2022-09-10T12:43:06.663Z,101246.16
2022-09-10T12:46:16.663Z,101254.03
2022-09-10T12:52:29.983Z,101254.94
2022-09-10T12:55:37.839Z,101241.03
2022-09-10T12:58:40.074Z,101246.25
2022-09-10T13:01:31.331Z,101250.63
2022-09-10T13:04:35.018Z,101256.72
2022-09-10T13:07:29.854Z,101245.41
2022-09-10T13:10:19.694Z,101254.13
2022-09-10T13:14:08.067Z,101230.63
2022-09-10T13:16:58.695Z,101246.38
2022-09-10T13:19:56.426Z,101248.13
2022-09-10T13:23:09.771Z,101237.72
2022-09-10T13:25:57.309Z,101233.41
2022-09-10T13:29:18.089Z,101245.56
2022-09-10T13:32:04.212Z,101254.28
2022-09-10T13:35:29.549Z,101248.13
2022-09-10T13:38:36.018Z,101235.94
2022-09-10T13:42:17.750Z,101255.97
2022-09-10T13:45:25.793Z,101258.59
2022-09-10T13:48:18.227Z,101260.41
2022-09-10T13:51:27.696Z,101248.22
2022-09-10T13:54:29.916Z,101252.59
2022-09-10T13:57:16.968Z,101250.00
2022-09-10T14:00:00.945Z,101245.63
2022-09-10T14:02:57.256Z,101249.97
2022-09-10T14:05:51.847Z,101247.38
2022-09-10T14:08:43.550Z,101224.75
2022-09-10T14:11:25.777Z,101225.59
2022-09-10T14:14:06.754Z,101235.16
2022-09-10T14:16:53.493Z,101232.56
2022-09-10T14:19:40.310Z,101202.97
2022-09-10T14:22:22.869Z,101249.97
2022-09-10T14:25:08.555Z,101224.72
2022-09-10T14:27:46.848Z,101243.91
2022-09-10T14:30:33.967Z,101245.63
2022-09-10T14:33:37.126Z,101241.28
2022-09-10T14:36:31.416Z,101243.91
2022-09-10T14:42:31.849Z,101234.31
2022-09-10T14:45:26.120Z,101229.09
2022-09-10T14:48:01.507Z,101228.22
2022-09-10T14:50:52.569Z,101232.56
2022-09-10T14:53:40.659Z,101202.97
2022-09-10T14:56:37.330Z,101223.84
2022-09-10T14:59:21.973Z,101229.09
2022-09-10T15:02:25.493Z,101219.47
2022-09-10T15:05:06.270Z,101209.88
2022-09-10T15:07:47.077Z,101199.44
2022-09-10T15:10:32.550Z,101222.94
2022-09-10T15:13:08.264Z,101226.44
2022-09-10T15:15:49.500Z,101227.28
2022-09-10T15:18:30.106Z,101215.94
2022-09-10T15:21:20.904Z,101225.56
2022-09-10T15:24:07.309Z,101182.03
2022-09-10T15:26:51.359Z,101215.13
2022-09-10T15:29:31.263Z,101220.34
2022-09-10T15:32:08.176Z,101223.81
2022-09-10T15:35:01.494Z,101227.31
2022-09-10T15:37:48.909Z,101220.34
2022-09-10T15:40:36.360Z,101222.06
2022-09-10T15:43:17.367Z,101227.28
2022-09-10T15:46:05.049Z,101220.28
2022-09-10T15:48:50.885Z,101218.50
2022-09-10T15:51:37.796Z,101226.34
2022-09-10T15:54:21.890Z,101223.72
2022-09-10T15:57:09.598Z,101218.56
2022-09-10T16:00:05.441Z,101176.78
2022-09-10T16:02:44.302Z,101218.56
2022-09-10T16:05:57.921Z,101211.59
2022-09-10T16:08:43.130Z,101201.16
2022-09-10T16:11:26.346Z,101202.84
2022-09-10T16:14:08.360Z,101129.78
2022-09-10T16:16:46.877Z,101203.72
2022-09-10T16:22:21.756Z,101185.50
2022-09-10T16:25:05.685Z,101192.47
2022-09-10T16:27:50.929Z,101197.69
2022-09-10T16:31:30.457Z,101190.75
2022-09-10T16:34:14.751Z,101192.47
2022-09-10T16:36:52.391Z,101188.13
2022-09-10T16:39:47.798Z,101189.00
2022-09-10T16:42:26.362Z,101187.22
2022-09-10T16:45:08.104Z,101172.41
2022-09-10T16:47:59.742Z,101161.06
2022-09-10T16:50:47.350Z,101177.59
2022-09-10T16:53:24.452Z,101144.56
2022-09-10T16:56:17.513Z,101173.28
2022-09-10T16:58:58.049Z,101170.69
2022-09-10T17:02:03.935Z,101173.31
2022-09-10T17:05:01.387Z,101168.09
2022-09-10T17:08:00.974Z,101175.06
2022-09-10T17:14:42.124Z,101176.84
2022-09-10T17:17:26.205Z,101176.81
2022-09-10T17:20:07.404Z,101173.34
2022-09-10T17:22:47.089Z,101171.59
2022-09-10T17:25:24.105Z,101180.34
2022-09-10T17:28:05.519Z,101180.31
2022-09-10T17:30:53.478Z,101174.19
2022-09-10T17:33:39.907Z,101172.50
2022-09-10T17:36:26.045Z,101172.44
2022-09-10T17:39:04.843Z,101149.81
2022-09-10T17:41:54.327Z,101161.13
2022-09-10T17:44:33.438Z,101164.63
2022-09-10T17:50:09.470Z,101166.38
2022-09-10T17:52:52.804Z,101162.88
2022-09-10T17:58:22.650Z,101161.13
2022-09-10T18:01:05.142Z,101155.91
2022-09-10T18:03:41.376Z,101154.19
2022-09-10T18:06:27.497Z,101121.97
2022-09-10T18:09:23.103Z,101162.88
2022-09-10T18:12:26.880Z,101152.44
2022-09-10T18:15:06.048Z,101160.28
2022-09-10T18:17:57.972Z,101162.03
2022-09-10T18:20:37.752Z,101162.88
2022-09-10T18:23:24.182Z,101157.66
2022-09-10T18:26:18.122Z,101154.19
2022-09-10T18:29:07.214Z,101128.06
2022-09-10T18:32:03.905Z,101141.13
2022-09-10T18:34:53.490Z,101157.66
2022-09-10T18:37:38.095Z,101149.84
2022-09-10T18:40:22.098Z,101144.59
2022-09-10T18:43:04.463Z,101152.44
2022-09-10T18:45:49.752Z,101114.13
2022-09-10T18:48:41.322Z,101159.41
2022-09-10T18:51:23.416Z,101145.50
2022-09-10T18:54:05.811Z,101157.66
2022-09-10T18:56:47.881Z,101155.94
2022-09-10T18:59:40.651Z,101147.22
2022-09-10T19:02:18.783Z,101148.97
2022-09-10T19:05:11.393Z,101147.19
2022-09-10T19:07:54.142Z,101155.91
2022-09-10T19:10:35.613Z,101152.44
2022-09-10T19:13:23.332Z,101151.56
2022-09-10T19:16:20.876Z,101110.66
2022-09-10T19:18:58.457Z,101145.47
2022-09-10T19:21:37.611Z,101117.59
2022-09-10T19:24:19.351Z,101146.31
2022-09-10T19:27:12.983Z,101139.38
2022-09-10T19:30:14.417Z,101144.59
2022-09-10T19:33:12.026Z,101137.63
2022-09-10T19:35:52.467Z,101136.78
2022-09-10T19:38:40.726Z,101138.50
2022-09-10T19:41:27.233Z,101133.28
2022-09-10T19:44:05.708Z,101136.75
2022-09-10T19:46:42.378Z,101140.22
2022-09-10T19:49:21.845Z,101140.22
2022-09-10T19:51:59.957Z,101128.91
2022-09-10T19:54:39.287Z,101127.16
2022-09-10T19:57:33.993Z,101136.75
2022-09-10T20:00:20.636Z,101138.47
2022-09-10T20:03:20.811Z,101123.63
2022-09-10T20:06:02.893Z,101133.19
2022-09-10T20:08:39.778Z,101128.84
2022-09-10T20:11:32.489Z,101131.41
2022-09-10T20:14:24.807Z,101105.25
2022-09-10T20:17:11.371Z,101141.78
2022-09-10T20:19:56.417Z,101126.09
2022-09-10T20:22:38.750Z,101143.50
2022-09-10T20:25:26.852Z,101136.53
2022-09-10T20:28:25.329Z,101141.78
2022-09-10T20:31:07.251Z,101150.50
2022-09-10T20:33:50.528Z,101145.34
2022-09-10T20:36:48.674Z,101140.13
2022-09-10T20:39:32.868Z,101145.38
2022-09-10T20:42:43.948Z,101139.31
2022-09-10T20:45:31.022Z,101155.88
2022-09-10T20:48:18.727Z,101154.16
2022-09-10T20:51:05.572Z,101114.13
2022-09-10T20:53:50.707Z,101147.22
2022-09-10T20:57:00.287Z,101141.13
2022-09-10T20:59:35.207Z,101140.25
2022-09-10T21:02:21.657Z,101146.34
2022-09-10T21:05:06.669Z,101121.09
2022-09-10T21:07:41.573Z,101136.78
2022-09-10T21:10:19.661Z,101135.03
2022-09-10T21:13:05.961Z,101129.78
2022-09-10T21:15:49.253Z,101131.47
2022-09-10T21:18:26.686Z,101131.41
2022-09-10T21:21:21.465Z,101120.94
2022-09-10T21:24:04.291Z,101126.09
2022-09-10T21:26:50.863Z,101130.38
2022-09-10T21:29:28.953Z,101119.88
2022-09-10T21:32:12.529Z,101125.00
2022-09-10T21:34:52.007Z,101126.66
2022-09-10T21:37:37.273Z,101009.25
2022-09-10T21:40:26.256Z,101125.63
2022-09-10T21:43:05.105Z,101120.28
2022-09-10T21:46:04.812Z,101116.69
2022-09-10T21:48:46.788Z,101066.09
2022-09-10T21:51:25.366Z,101108.50
2022-09-10T21:54:07.583Z,101106.63
2022-09-10T21:56:48.822Z,101110.78
2022-09-10T21:59:34.451Z,101107.16
2022-09-10T22:02:31.335Z,101103.53
2022-09-10T22:05:26.252Z,101096.41
2022-09-10T22:08:01.519Z,101093.50
2022-09-10T22:10:44.694Z,101088.97
2022-09-10T22:13:45.942Z,101088.72
2022-09-10T22:16:36.355Z,101088.47
2022-09-10T22:19:50.986Z,101093.41
2022-09-10T22:22:35.615Z,101088.06
2022-09-10T22:25:20.482Z,101093.13
2022-09-10T22:27:59.583Z,101086.75
2022-09-10T22:30:41.796Z,101087.38
2022-09-10T22:33:36.779Z,101088.00
2022-09-10T22:36:38.457Z,101088.47
2022-09-10T22:39:31.329Z,101067.41
2022-09-10T22:42:09.770Z,101084.41
2022-09-10T22:44:55.135Z,101092.88
2022-09-10T22:47:34.714Z,101082.94
2022-09-10T22:50:10.814Z,101077.38
2022-09-10T22:53:04.786Z,101079.59
2022-09-10T22:55:45.378Z,101078.28
2022-09-10T22:58:22.187Z,101075.16
2022-09-10T23:01:00.217Z,101069.44
2022-09-10T23:03:38.322Z,101079.56
2022-09-10T23:06:31.637Z,101073.97
2022-09-10T23:09:11.169Z,101065.84
2022-09-10T23:11:57.502Z,101074.91
2022-09-10T23:14:55.110Z,101069.06
2022-09-10T23:17:33.177Z,101062.25
2022-09-10T23:20:26.572Z,101066.00
2022-09-10T23:23:04.970Z,101035.84
2022-09-10T23:26:00.183Z,101065.44
2022-09-10T23:28:44.222Z,101070.38
2022-09-10T23:31:23.165Z,101061.22
2022-09-10T23:34:01.759Z,101053.25
2022-09-10T23:36:42.701Z,101074.38
2022-09-10T23:39:41.203Z,101080.13
2022-09-10T23:42:36.225Z,101084.88
2022-09-10T23:45:17.605Z,101041.00
2022-09-10T23:48:12.267Z,101071.13
2022-09-10T23:51:11.435Z,101070.16
2022-09-10T23:53:51.539Z,101074.72
2022-09-10T23:56:28.279Z,101075.94
2022-09-10T23:59:13.250Z,101069.47
